Time;durP1;ratioP1;P1;durP2;ratioP2;P2;SDS_P1;SDS_P2;PMS_P1;PMS_P2;Temp;Humidity;BMP_temperature;BMP_pressure;BME280_temperature;BME280_humidity;BME280_pressure;Samples;Min_cycle;Max_cycle;Signal;HPM_P1;HPM_P2
2022/07/04 00:00:01;;;;;;;0.10;0.10;;;;;;;22.23;53.31;101634.56;5120695;28;20046;-41
2022/07/04 00:02:26;;;;;;;0.10;0.10;;;;;;;22.23;53.14;101634.56;5120884;28;20043;-38
2022/07/04 00:04:52;;;;;;;0.10;0.10;;;;;;;22.23;53.31;101633.72;5122470;28;20454;-39
2022/07/04 00:07:19;;;;;;;0.10;0.10;;;;;;;22.22;53.33;101645.94;5120051;28;20048;-37
2022/07/04 00:09:44;;;;;;;0.10;0.10;;;;;;;22.23;53.21;101644.81;5117742;28;20071;-41
2022/07/04 00:12:10;;;;;;;0.10;0.10;;;;;;;22.22;53.27;101644.00;5125356;28;20402;-40
2022/07/04 00:14:37;;;;;;;0.10;0.10;;;;;;;22.24;53.25;101643.75;5101374;28;20100;-40
2022/07/04 00:17:06;;;;;;;0.10;0.10;;;;;;;22.23;53.17;101645.66;5120521;28;20489;-38
2022/07/04 00:19:32;;;;;;;0.10;0.10;;;;;;;22.22;53.31;101649.56;5102981;28;20047;-39
2022/07/04 00:21:58;;;;;;;0.10;0.10;;;;;;;22.23;53.25;101639.28;5121464;28;20109;-40
2022/07/04 00:24:24;;;;;;;0.10;0.10;;;;;;;22.23;53.19;101639.28;5123702;28;20494;-41
2022/07/04 00:26:49;;;;;;;0.10;0.10;;;;;;;22.24;53.09;101643.75;5125391;28;20043;-39
2022/07/04 00:29:15;;;;;;;0.10;0.10;;;;;;;22.23;53.17;101640.09;5124240;28;20047;-39
2022/07/04 00:31:41;;;;;;;0.10;0.10;;;;;;;22.24;53.22;101638.19;5104916;28;20130;-39
2022/07/04 00:34:07;;;;;;;0.10;0.10;;;;;;;22.23;53.25;101636.50;5100477;28;20051;-41
2022/07/04 00:36:32;;;;;;;0.17;0.17;;;;;;;22.23;53.17;101640.09;5084732;28;20474;-39
2022/07/04 00:38:58;;;;;;;0.20;0.20;;;;;;;22.23;53.10;101639.28;5121239;28;20046;-41
2022/07/04 00:41:24;;;;;;;0.10;0.10;;;;;;;22.23;53.21;101623.47;5122315;28;20043;-39
2022/07/04 00:44:07;;;;;;;0.10;0.10;;;;;;;22.23;53.18;101622.63;5120121;28;20118;-41
2022/07/04 00:46:39;;;;;;;0.10;0.10;;;;;;;22.23;53.15;101626.22;5090407;28;20054;-37
2022/07/04 00:49:06;;;;;;;0.10;0.10;;;;;;;22.22;53.18;101619.03;5119022;28;20338;-41
2022/07/04 00:51:31;;;;;;;0.10;0.10;;;;;;;22.23;53.17;101617.91;5118998;28;20120;-38
2022/07/04 00:53:58;;;;;;;0.10;0.10;;;;;;;22.23;53.22;101619.84;5105344;28;20466;-39
2022/07/04 00:56:24;;;;;;;0.10;0.10;;;;;;;22.23;53.25;101623.47;5102839;28;20134;-41
2022/07/04 00:58:50;;;;;;;0.10;0.10;;;;;;;22.23;53.16;101623.47;5117632;28;20430;-37
2022/07/04 01:01:17;;;;;;;0.10;0.10;;;;;;;22.23;53.18;101619.84;5117424;28;20569;-39
2022/07/04 01:03:43;;;;;;;0.20;0.20;;;;;;;22.23;53.14;101612.34;5121171;28;20058;-39
2022/07/04 01:06:09;;;;;;;0.10;0.10;;;;;;;22.23;53.21;101608.75;5116827;28;20413;-41
2022/07/04 01:08:40;;;;;;;0.10;0.10;;;;;;;22.23;53.26;101612.34;5118311;28;20083;-38
2022/07/04 01:11:06;;;;;;;0.10;0.10;;;;;;;22.23;53.30;101612.34;5117044;28;20069;-37
2022/07/04 01:13:32;;;;;;;0.13;0.13;;;;;;;22.23;53.19;101615.13;5100257;28;20051;-42
2022/07/04 01:15:57;;;;;;;0.10;0.10;;;;;;;22.23;53.13;101615.13;5118654;28;20450;-40
2022/07/04 01:18:23;;;;;;;0.20;0.20;;;;;;;22.23;53.09;101604.03;5100722;28;20051;-40
2022/07/04 01:20:49;;;;;;;0.20;0.20;;;;;;;22.24;53.22;101610.44;5126588;28;20042;-42
2022/07/04 01:23:15;;;;;;;0.10;0.10;;;;;;;22.24;53.30;101610.44;5105115;28;20422;-41
2022/07/04 01:25:41;;;;;;;0.10;0.10;;;;;;;22.24;53.26;101613.22;5086818;28;20079;-40
2022/07/04 01:28:08;;;;;;;0.20;0.20;;;;;;;22.24;53.18;101605.72;5083717;28;20051;-39
2022/07/04 01:30:35;;;;;;;0.10;0.10;;;;;;;22.23;53.22;101614.31;5118836;28;20067;-39
2022/07/04 01:33:01;;;;;;;0.10;0.10;;;;;;;22.24;53.27;101616.00;5121206;28;20058;-40
2022/07/04 01:35:27;;;;;;;0.10;0.10;;;;;;;22.23;53.16;101615.13;5100321;28;20409;-41
2022/07/04 01:37:52;;;;;;;0.10;0.10;;;;;;;22.23;53.32;101608.75;5100841;28;20055;-39
2022/07/04 01:40:18;;;;;;;0.10;0.10;;;;;;;22.24;53.24;101611.28;5100502;28;20164;-39
2022/07/04 01:42:44;;;;;;;0.10;0.10;;;;;;;22.23;53.21;101604.03;5119954;27;20057;-40
2022/07/04 01:45:10;;;;;;;0.10;0.10;;;;;;;22.24;53.12;101602.94;5118584;27;20047;-40
2022/07/04 01:47:36;;;;;;;0.10;0.10;;;;;;;22.23;53.19;101604.03;5101346;28;20146;-40
2022/07/04 01:50:03;;;;;;;0.20;0.20;;;;;;;22.23;53.19;101609.59;5123359;28;20047;-41
2022/07/04 01:52:29;;;;;;;0.10;0.10;;;;;;;22.23;53.25;101606.81;5119592;28;20090;-39
2022/07/04 01:54:54;;;;;;;0.10;0.10;;;;;;;22.24;53.16;101611.28;5128487;28;20036;-39
2022/07/04 01:57:20;;;;;;;0.10;0.10;;;;;;;22.23;53.33;101611.53;5123106;28;20043;-39
2022/07/04 02:02:31;;;;;;;0.10;0.10;;;;;;;22.22;53.28;101607.94;5103193;28;20106;-39
2022/07/04 02:04:57;;;;;;;0.10;0.10;;;;;;;22.23;53.19;101605.97;5098634;28;20122;-41
2022/07/04 02:07:23;;;;;;;0.10;0.10;;;;;;;22.23;53.18;101615.13;5114629;28;20100;-39
2022/07/04 02:09:49;;;;;;;0.10;0.10;;;;;;;22.23;53.23;101617.09;5123526;28;20065;-39
2022/07/04 02:15:00;;;;;;;0.10;0.10;;;;;;;22.23;53.25;101625.41;5105127;28;20497;-39
2022/07/04 02:17:26;;;;;;;0.10;0.10;;;;;;;22.22;53.25;101621.81;5103361;28;20044;-38
2022/07/04 02:19:51;;;;;;;0.10;0.10;;;;;;;22.24;53.22;101624.31;5120727;28;20036;-38
2022/07/04 02:22:17;;;;;;;0.10;0.10;;;;;;;22.23;53.21;101617.91;5099394;28;20043;-40
2022/07/04 02:24:43;;;;;;;0.10;0.10;;;;;;;22.22;53.22;101621.81;5121814;28;20047;-39
2022/07/04 02:27:08;;;;;;;0.10;0.10;;;;;;;22.22;53.22;101627.34;5117691;28;20500;-39
2022/07/04 02:29:34;;;;;;;0.10;0.10;;;;;;;22.22;53.13;101629.31;5115006;28;20047;-39
2022/07/04 02:32:00;;;;;;;0.10;0.10;;;;;;;22.23;53.23;101640.09;5117943;28;20478;-39
2022/07/04 02:34:26;;;;;;;0.10;0.10;;;;;;;22.23;53.13;101636.50;5115325;28;20069;-39
2022/07/04 02:36:52;;;;;;;0.10;0.10;;;;;;;22.23;53.23;101642.06;5119195;28;20043;-39
2022/07/04 02:39:17;;;;;;;0.10;0.10;;;;;;;22.24;53.07;101646.50;5123228;28;20059;-38
2022/07/04 02:41:43;;;;;;;0.10;0.10;;;;;;;22.23;53.24;101645.66;5124373;28;20048;-39
2022/07/04 02:44:09;;;;;;;0.10;0.10;;;;;;;22.23;53.25;101637.34;5120131;28;20043;-39
2022/07/04 02:46:35;;;;;;;0.10;0.10;;;;;;;22.22;53.27;101630.13;5116994;28;20085;-40
2022/07/04 02:49:02;;;;;;;0.10;0.10;;;;;;;22.22;53.14;101641.22;5099005;28;20481;-40
2022/07/04 02:51:27;;;;;;;0.10;0.10;;;;;;;22.22;53.11;101644.00;5122192;28;20074;-39
2022/07/04 02:53:53;;;;;;;0.10;0.10;;;;;;;22.23;53.16;101642.06;5119485;28;20066;-39
2022/07/04 02:56:19;;;;;;;0.10;0.10;;;;;;;22.23;53.14;101651.19;5115709;28;20056;-39
2022/07/04 02:58:45;;;;;;;0.10;0.10;;;;;;;22.23;53.10;101656.75;5120178;28;20046;-39
2022/07/04 03:01:12;;;;;;;0.10;0.10;;;;;;;22.22;53.25;101657.03;5100546;28;20050;-38
2022/07/04 03:03:39;;;;;;;0.10;0.10;;;;;;;22.23;53.13;101655.94;5118702;28;20047;-41
2022/07/04 03:06:06;;;;;;;0.10;0.10;;;;;;;22.23;53.07;101659.53;5117639;28;20051;-40
2022/07/04 03:08:32;;;;;;;0.10;0.10;;;;;;;22.23;53.17;101665.06;5114036;28;20077;-41
2022/07/04 03:10:57;;;;;;;0.10;0.10;;;;;;;22.22;53.18;101677.28;5103374;28;20492;-39
2022/07/04 03:13:24;;;;;;;0.13;0.13;;;;;;;22.23;53.11;101678.94;5117929;28;20046;-37
2022/07/04 03:15:51;;;;;;;0.10;0.10;;;;;;;22.23;53.16;101680.91;5118174;28;20604;-39
2022/07/04 03:18:16;;;;;;;0.10;0.10;;;;;;;22.22;53.16;101676.47;5099814;28;20449;-40
2022/07/04 03:20:42;;;;;;;0.10;0.10;;;;;;;22.24;53.05;101685.34;5118538;28;20048;-39
2022/07/04 03:23:08;;;;;;;0.20;0.20;;;;;;;22.24;53.14;101682.59;5119618;28;20039;-39
2022/07/04 03:25:34;;;;;;;0.10;0.10;;;;;;;22.24;53.13;101685.34;5115337;28;20077;-41
2022/07/04 03:28:00;;;;;;;0.10;0.10;;;;;;;22.23;53.16;101689.22;5097787;28;20079;-39
2022/07/04 03:30:26;;;;;;;0.10;0.10;;;;;;;22.23;53.15;101695.59;5118550;28;20085;-41
2022/07/04 03:32:51;;;;;;;0.10;0.10;;;;;;;22.23;53.02;101698.38;5098326;28;20048;-39
2022/07/04 03:35:17;;;;;;;0.10;0.10;;;;;;;22.23;53.15;101692.81;5118851;28;20082;-39
2022/07/04 03:37:42;;;;;;;0.10;0.10;;;;;;;22.23;53.18;101692.00;5117118;28;20096;-37
2022/07/04 03:40:09;;;;;;;0.10;0.10;;;;;;;22.22;53.17;101693.13;5116321;28;20035;-39
2022/07/04 03:42:34;;;;;;;0.10;0.10;;;;;;;22.23;53.21;101694.78;5120314;28;20783;-41
2022/07/04 03:45:00;;;;;;;0.10;0.10;;;;;;;22.22;53.19;101696.72;5118020;28;20068;-40
2022/07/04 03:47:26;;;;;;;0.10;0.10;;;;;;;22.22;53.10;101685.63;5120155;28;20047;-41
2022/07/04 03:49:51;;;;;;;0.10;0.10;;;;;;;22.22;53.09;101690.34;5122321;28;20384;-39
2022/07/04 03:52:17;;;;;;;0.10;0.10;;;;;;;22.21;53.16;101686.75;5120699;28;20055;-41
2022/07/04 03:54:42;;;;;;;0.10;0.10;;;;;;;22.22;53.15;101693.13;5117091;28;20054;-39
2022/07/04 03:57:09;;;;;;;0.10;0.10;;;;;;;22.22;53.07;101698.66;5115154;28;20039;-39
2022/07/04 03:59:34;;;;;;;0.10;0.10;;;;;;;22.22;53.01;101693.94;5116650;28;20538;-39
2022/07/04 04:02:00;;;;;;;0.10;0.10;;;;;;;22.22;53.07;101690.34;5118332;28;20051;-39
2022/07/04 04:07:12;;;;;;;0.10;0.10;;;;;;;22.21;53.14;101685.91;5104279;28;20144;-39
2022/07/04 04:09:37;;;;;;;0.10;0.10;;;;;;;22.21;53.11;101689.50;5119077;28;20166;-38
2022/07/04 04:12:03;;;;;;;0.10;0.10;;;;;;;22.23;53.19;101686.44;5121056;28;20050;-39
2022/07/04 04:14:29;;;;;;;0.10;0.10;;;;;;;22.22;52.98;101688.41;5121882;28;20044;-39
2022/07/04 04:16:55;;;;;;;0.10;0.10;;;;;;;22.22;53.10;101696.72;5123121;28;20089;-39
2022/07/04 04:19:20;;;;;;;0.10;0.10;;;;;;;22.22;53.11;101696.72;5125474;28;20047;-39
2022/07/04 04:21:46;;;;;;;0.10;0.10;;;;;;;22.22;53.14;101696.72;5118672;28;20048;-41
2022/07/04 04:24:12;;;;;;;0.10;0.10;;;;;;;22.22;53.13;101693.13;5121145;28;20485;-39
2022/07/04 04:26:37;;;;;;;0.10;0.10;;;;;;;22.21;53.01;101700.59;5117941;28;20058;-40
2022/07/04 04:29:03;;;;;;;0.10;0.10;;;;;;;22.23;53.05;101700.31;5121224;28;20068;-40
2022/07/04 04:31:30;;;;;;;0.10;0.10;;;;;;;22.23;53.10;101697.53;5121991;28;20428;-39
2022/07/04 04:33:56;;;;;;;0.20;0.20;;;;;;;22.23;53.06;101692.00;5121841;28;20401;-39
2022/07/04 04:36:22;;;;;;;0.10;0.10;;;;;;;22.22;53.12;101693.94;5121808;28;20092;-41
2022/07/04 04:38:48;;;;;;;0.10;0.10;;;;;;;22.21;53.03;101692.28;5102798;28;20108;-39
2022/07/04 04:41:14;;;;;;;0.10;0.10;;;;;;;22.20;53.03;101701.72;5098133;28;20106;-39
2022/07/04 04:43:39;;;;;;;0.10;0.10;;;;;;;22.22;53.00;101701.44;5121329;28;20043;-40
2022/07/04 04:46:05;;;;;;;0.10;0.10;;;;;;;22.22;53.08;101701.44;5122203;28;20058;-41
2022/07/04 04:48:31;;;;;;;0.10;0.10;;;;;;;22.21;53.12;101703.38;5123963;28;20062;-41
2022/07/04 04:50:56;;;;;;;0.10;0.10;;;;;;;22.21;53.04;101725.59;5123647;28;20039;-40
2022/07/04 04:53:25;;;;;;;0.10;0.10;;;;;;;22.22;53.00;101729.19;5120848;28;20177;-39
2022/07/04 04:55:51;;;;;;;;;;;;;;;22.23;52.94;101730.84;5125322;28;20490;-39
2022/07/04 04:58:16;;;;;;;0.10;0.10;;;;;;;22.21;53.03;101727.53;5119106;28;20030;-39
2022/07/04 05:00:42;;;;;;;0.10;0.10;;;;;;;22.22;53.07;101730.00;5119741;28;20040;-39
2022/07/04 05:03:28;;;;;;;0.10;0.10;;;;;;;22.22;53.03;101720.84;5109453;28;20058;-39
2022/07/04 05:05:54;;;;;;;0.10;0.10;;;;;;;22.22;53.04;101723.63;5120554;28;20121;-40
2022/07/04 05:08:20;;;;;;;0.10;0.10;;;;;;;22.22;52.99;101724.47;5116811;28;20048;-39
2022/07/04 05:10:45;;;;;;;0.17;0.17;;;;;;;22.20;53.14;101723.09;5120891;28;20138;-39
2022/07/04 05:13:11;;;;;;;0.10;0.10;;;;;;;22.21;53.10;101728.34;5119309;28;20040;-41
2022/07/04 05:15:37;;;;;;;0.10;0.10;;;;;;;22.21;53.07;101725.59;5124709;28;20492;-39
2022/07/04 05:18:02;;;;;;;0.10;0.10;;;;;;;22.21;53.16;101717.25;5117108;28;20668;-38
2022/07/04 05:20:28;;;;;;;0.10;0.10;;;;;;;22.21;53.08;101721.97;5122362;28;20047;-39
2022/07/04 05:22:54;;;;;;;0.10;0.10;;;;;;;22.20;53.12;101715.59;5122199;28;20035;-38
2022/07/04 05:25:19;;;;;;;0.10;0.10;;;;;;;22.22;53.20;101727.25;5122740;28;20049;-39
2022/07/04 05:27:45;;;;;;;0.10;0.10;;;;;;;22.21;53.05;101719.22;5120190;28;20039;-37
2022/07/04 05:30:11;;;;;;;0.10;0.10;;;;;;;22.19;53.05;101722.28;5119214;28;20126;-39
2022/07/04 05:32:39;;;;;;;0.10;0.10;;;;;;;22.21;53.11;101714.47;5119114;28;20355;-38
2022/07/04 05:35:06;;;;;;;0.10;0.10;;;;;;;22.23;52.97;101719.75;5119364;28;20067;-39
2022/07/04 05:37:32;;;;;;;0.10;0.10;;;;;;;22.21;52.94;101714.47;5115815;28;20126;-40
2022/07/04 05:39:58;;;;;;;0.10;0.10;;;;;;;22.22;52.95;101720.84;5117315;28;20100;-39
2022/07/04 05:42:23;;;;;;;0.10;0.10;;;;;;;22.21;52.99;101724.75;5121198;28;20047;-39
2022/07/04 05:44:49;;;;;;;0.10;0.10;;;;;;;22.21;52.99;101717.25;5121684;28;20046;-39
2022/07/04 05:47:15;;;;;;;0.10;0.10;;;;;;;22.22;52.90;101716.13;5114420;28;20035;-39
2022/07/04 05:49:40;;;;;;;0.10;0.10;;;;;;;22.22;53.13;101720.84;5116641;28;20526;-39
2022/07/04 05:52:06;;;;;;;0.10;0.10;;;;;;;22.21;53.05;101721.97;5118916;28;20404;-39
2022/07/04 05:54:32;;;;;;;0.10;0.10;;;;;;;22.22;53.03;101720.84;5107504;28;20062;-37
2022/07/04 05:56:58;;;;;;;0.10;0.10;;;;;;;22.21;53.01;101717.25;5119860;28;20070;-39
2022/07/04 05:59:23;;;;;;;0.10;0.10;;;;;;;22.20;53.05;101715.59;5117338;28;20048;-39
2022/07/04 06:01:49;;;;;;;0.10;0.10;;;;;;;22.22;53.09;101712.53;5121551;28;20042;-39
2022/07/04 06:04:15;;;;;;;0.10;0.10;;;;;;;22.21;52.85;101714.47;5101583;28;20474;-38
2022/07/04 06:06:40;;;;;;;0.10;0.10;;;;;;;22.22;53.04;101724.47;5118206;28;20036;-38
2022/07/04 06:09:06;;;;;;;0.10;0.10;;;;;;;22.22;53.06;101716.13;5119910;28;20043;-37
2022/07/04 06:11:32;;;;;;;0.10;0.10;;;;;;;22.22;52.97;101713.38;5117415;28;20053;-38
2022/07/04 06:13:58;;;;;;;0.10;0.10;;;;;;;22.22;53.15;101718.09;5118768;28;20084;-39
2022/07/04 06:16:23;;;;;;;0.10;0.10;;;;;;;22.21;53.03;101710.88;5121737;28;20090;-35
2022/07/04 06:18:49;;;;;;;0.10;0.10;;;;;;;22.21;53.08;101713.66;5097944;28;20406;-39
2022/07/04 06:21:14;;;;;;;0.10;0.10;;;;;;;22.21;53.07;101717.25;5121214;28;20370;-38
2022/07/04 06:23:40;;;;;;;0.10;0.10;;;;;;;22.21;53.08;101722.81;5098046;28;20061;-38
2022/07/04 06:26:06;;;;;;;0.10;0.10;;;;;;;22.21;52.93;101716.44;5115695;28;20089;-39
2022/07/04 06:28:32;;;;;;;0.10;0.10;;;;;;;22.22;53.08;101710.59;5099008;28;20043;-38
2022/07/04 06:31:14;;;;;;;0.10;0.10;;;;;;;22.21;52.99;101702.56;5086916;27;20088;-40
2022/07/04 06:36:25;;;;;;;0.10;0.10;;;;;;;22.21;53.12;101708.09;5108039;28;20047;-39
2022/07/04 06:38:51;;;;;;;0.10;0.10;;;;;;;22.20;53.05;101700.91;5118220;28;20048;-40
2022/07/04 06:41:17;;;;;;;0.10;0.10;;;;;;;22.20;53.04;101707.28;5119349;28;20139;-39
2022/07/04 06:43:42;;;;;;;0.10;0.10;;;;;;;22.22;52.92;101720.84;5125417;28;20053;-39
2022/07/04 06:46:08;;;;;;;0.10;0.10;;;;;;;22.20;53.02;101715.59;5120216;28;20046;-39
2022/07/04 06:48:33;;;;;;;0.10;0.10;;;;;;;22.21;52.92;101719.22;5120005;28;20430;-40
2022/07/04 06:50:59;;;;;;;0.10;0.10;;;;;;;22.21;53.13;101722.81;5121097;28;20039;-39
2022/07/04 06:53:25;;;;;;;0.10;0.10;;;;;;;22.21;52.99;101724.75;5118080;28;20039;-38
2022/07/04 06:55:50;;;;;;;0.10;0.10;;;;;;;22.21;53.02;101721.97;5115501;28;20044;-39
2022/07/04 06:58:16;;;;;;;0.10;0.10;;;;;;;22.22;53.02;101724.47;5117791;28;20043;-39
2022/07/04 07:00:42;;;;;;;0.10;0.10;;;;;;;22.20;53.09;101723.94;5115473;28;20044;-39
2022/07/04 07:03:08;;;;;;;0.10;0.10;;;;;;;22.21;53.00;101724.75;5120381;28;20386;-39
2022/07/04 07:05:36;;;;;;;0.10;0.10;;;;;;;22.20;53.17;101720.31;5097504;28;20086;-39
2022/07/04 07:08:22;;;;;;;;;;;;;;;22.23;52.86;101719.75;5102604;28;20484;-39
2022/07/04 07:10:48;;;;;;;0.10;0.10;;;;;;;22.21;52.91;101717.25;5117056;28;19923;-39
2022/07/04 07:13:14;;;;;;;0.10;0.10;;;;;;;22.22;52.84;101718.09;5100316;28;20075;-40
2022/07/04 07:15:40;;;;;;;0.10;0.10;;;;;;;22.20;53.09;101712.81;5118843;28;20046;-39
2022/07/04 07:18:06;;;;;;;0.10;0.10;;;;;;;22.22;52.99;101718.09;5082667;28;20133;-40
2022/07/04 07:20:32;;;;;;;0.10;0.10;;;;;;;22.21;52.95;101711.72;5120065;28;20088;-39
2022/07/04 07:22:58;;;;;;;0.10;0.10;;;;;;;22.20;52.93;101715.59;5121769;28;20047;-39
2022/07/04 07:25:23;;;;;;;0.10;0.10;;;;;;;22.21;52.95;101716.44;5116081;28;20130;-39
2022/07/04 07:27:49;;;;;;;0.10;0.10;;;;;;;22.20;53.05;101715.59;5102404;28;20051;-40
2022/07/04 07:30:15;;;;;;;0.10;0.10;;;;;;;22.20;53.08;101710.06;5115773;28;20474;-38
2022/07/04 07:32:41;;;;;;;0.10;0.10;;;;;;;22.21;52.97;101717.25;5115197;28;20045;-39
2022/07/04 07:35:07;;;;;;;0.10;0.10;;;;;;;22.20;52.95;101712.81;5099127;28;20047;-39
2022/07/04 07:37:32;;;;;;;0.10;0.10;;;;;;;22.20;52.94;101720.31;5116577;28;20130;-41
2022/07/04 07:39:58;;;;;;;0.10;0.10;;;;;;;22.21;53.01;101714.47;5122303;28;20067;-41
2022/07/04 07:42:25;;;;;;;0.10;0.10;;;;;;;22.21;52.79;101710.88;5116785;27;20474;-39
2022/07/04 07:44:51;;;;;;;0.10;0.10;;;;;;;22.21;53.00;101713.66;5101706;28;20063;-39
2022/07/04 07:47:16;;;;;;;0.10;0.10;;;;;;;22.20;53.05;101712.81;5099242;28;20147;-39
2022/07/04 07:49:42;;;;;;;0.10;0.10;;;;;;;22.20;52.96;101721.16;5122667;28;20051;-39
2022/07/04 07:52:08;;;;;;;0.10;0.10;;;;;;;22.20;53.04;101710.06;5101848;28;20051;-39
2022/07/04 07:54:34;;;;;;;0.10;0.10;;;;;;;22.19;52.98;101719.50;5124071;28;20092;-41
2022/07/04 07:57:20;;;;;;;0.10;0.10;;;;;;;22.19;52.86;101713.09;5092739;28;20051;-39
2022/07/04 07:59:45;;;;;;;0.10;0.10;;;;;;;22.20;52.91;101718.38;5124162;28;20047;-39
2022/07/04 08:02:12;;;;;;;0.10;0.10;;;;;;;22.19;52.92;101716.72;5119601;28;20088;-39
2022/07/04 08:04:38;;;;;;;0.10;0.10;;;;;;;22.20;52.84;101717.56;5121760;28;20044;-39
2022/07/04 08:07:06;;;;;;;0.10;0.10;;;;;;;22.21;53.05;101717.25;5116786;28;20134;-39
2022/07/04 08:09:48;;;;;;;0.10;0.10;;;;;;;22.20;52.92;101717.56;5123562;28;20478;-39
2022/07/04 08:12:14;;;;;;;0.10;0.10;;;;;;;22.19;53.12;101722.28;5122332;28;20072;-39
2022/07/04 08:14:39;;;;;;;0.15;0.15;;;;;;;22.20;52.88;101717.56;5121627;28;20478;-40
2022/07/04 08:17:06;;;;;;;0.10;0.10;;;;;;;22.20;52.88;101712.81;5118187;28;20409;-40
2022/07/04 08:19:31;;;;;;;0.10;0.10;;;;;;;22.20;53.01;101703.69;5119458;28;20051;-40
2022/07/04 08:21:57;;;;;;;0.10;0.10;;;;;;;22.19;52.85;101708.41;5118889;28;20054;-39
2022/07/04 08:24:40;;;;;;;0.10;0.10;;;;;;;22.20;52.93;101712.00;5119049;28;20047;-39
2022/07/04 08:27:06;;;;;;;0.10;0.10;;;;;;;22.20;52.94;101712.81;5103060;28;20039;-39
2022/07/04 08:29:32;;;;;;;0.10;0.10;;;;;;;22.21;53.04;101705.34;5121725;28;20039;-39
2022/07/04 08:31:58;;;;;;;0.10;0.10;;;;;;;22.23;52.80;101715.03;5125634;28;20057;-40
2022/07/04 08:34:24;;;;;;;0.10;0.10;;;;;;;22.21;52.86;101710.88;5122931;28;20058;-39
2022/07/04 08:36:49;;;;;;;0.10;0.10;;;;;;;22.20;52.91;101715.59;5122062;28;20123;-39
2022/07/04 08:39:16;;;;;;;0.13;0.13;;;;;;;22.20;53.07;101712.81;5120769;28;20044;-39
2022/07/04 08:41:42;;;;;;;0.10;0.10;;;;;;;22.22;52.95;101709.75;5120111;28;20462;-39
2022/07/04 08:44:11;;;;;;;0.10;0.10;;;;;;;22.18;53.04;101697.56;5102719;28;20050;-39
2022/07/04 08:46:39;;;;;;;0.10;0.10;;;;;;;22.19;53.08;101696.44;5117223;28;20043;-37
2022/07/04 08:49:10;;;;;;;0.10;0.10;;;;;;;22.20;52.94;101709.22;5103693;28;20050;-39
2022/07/04 08:51:54;;;;;;;0.10;0.10;;;;;;;22.18;52.97;101697.56;5121547;28;20075;-40
2022/07/04 08:59:55;;;;;;;0.10;0.10;;;;;;;22.21;52.74;101694.22;5087571;28;20075;-40
2022/07/04 09:02:21;;;;;;;0.10;0.10;;;;;;;22.20;52.86;101687.88;5124030;28;20079;-39
2022/07/04 09:04:49;;;;;;;0.10;0.10;;;;;;;22.20;53.01;101696.19;5102141;28;20103;-40
2022/07/04 09:07:14;;;;;;;0.10;0.10;;;;;;;22.20;52.84;101698.13;5122827;28;20083;-39
2022/07/04 09:09:40;;;;;;;0.10;0.10;;;;;;;22.21;52.91;101697.00;5116755;28;20046;-39
2022/07/04 09:12:08;;;;;;;0.10;0.10;;;;;;;22.19;53.01;101702.84;5119424;28;20610;-39
2022/07/04 09:14:34;;;;;;;0.10;0.10;;;;;;;22.20;53.02;101698.97;5096668;28;20075;-39
2022/07/04 09:17:00;;;;;;;0.10;0.10;;;;;;;22.21;52.93;101702.56;5099134;28;20040;-41
2022/07/04 09:19:26;;;;;;;0.10;0.10;;;;;;;22.21;53.00;101699.78;5103113;28;20036;-39
2022/07/04 09:21:51;;;;;;;0.10;0.10;;;;;;;22.20;52.94;101698.13;5120417;28;20420;-39
2022/07/04 09:24:54;;;;;;;0.10;0.10;;;;;;;22.19;53.12;101694.53;5120544;28;20043;-39
2022/07/04 09:27:36;;;;;;;0.10;0.10;;;;;;;22.18;53.01;101700.34;5104822;28;20079;-41
2022/07/04 09:30:03;;;;;;;0.20;0.20;;;;;;;22.19;52.94;101688.97;5116762;28;20079;-40
2022/07/04 09:32:37;;;;;;;0.10;0.10;;;;;;;22.20;52.98;101689.81;5124315;28;20078;-40
2022/07/04 09:35:07;;;;;;;0.10;0.10;;;;;;;22.20;53.05;101684.25;5102749;28;20094;-41
2022/07/04 09:37:35;;;;;;;0.15;0.15;;;;;;;22.20;52.97;101684.25;5117816;28;20078;-39
2022/07/04 09:40:04;;;;;;;0.10;0.10;;;;;;;22.20;52.95;101678.72;5102071;28;20079;-39
2022/07/04 09:42:37;;;;;;;;;;;;;;;22.20;53.04;101681.47;5116187;28;20544;-39
2022/07/04 09:45:05;;;;;;;0.10;0.10;;;;;;;22.19;52.85;101683.44;5102607;28;20391;-40
2022/07/04 09:47:31;;;;;;;0.10;0.10;;;;;;;22.19;52.90;101682.56;5121493;28;20075;-40
2022/07/04 09:50:03;;;;;;;0.10;0.10;;;;;;;22.21;52.79;101688.69;5120318;28;20051;-40
2022/07/04 09:52:29;;;;;;;0.10;0.10;;;;;;;22.19;52.90;101686.22;5100196;28;20066;-39
2022/07/04 09:55:02;;;;;;;0.10;0.10;;;;;;;22.18;52.94;101683.69;5120520;28;20046;-40
2022/07/04 09:57:29;;;;;;;0.10;0.10;;;;;;;22.20;53.04;101684.25;5105520;28;20497;-40
2022/07/04 09:59:55;;;;;;;0.10;0.10;;;;;;;22.19;53.04;101682.56;5096374;28;20130;-40
2022/07/04 10:02:21;;;;;;;0.10;0.10;;;;;;;22.19;53.03;101691.75;5120336;28;20885;-36
2022/07/04 10:04:49;;;;;;;0.10;0.10;;;;;;;22.17;52.91;101688.41;5121452;28;20048;-39
2022/07/04 10:07:29;;;;;;;;;;;;;;;22.19;53.01;101682.56;5082358;28;20138;-38
2022/07/04 10:09:54;;;;;;;0.10;0.10;;;;;;;22.18;53.04;101692.84;5118117;28;19967;-39
2022/07/04 10:12:28;;;;;;;0.15;0.15;;;;;;;22.20;52.93;101690.63;5119577;28;20053;-39
2022/07/04 10:14:55;;;;;;;0.10;0.10;;;;;;;22.20;53.12;101692.59;5099301;28;20466;-39
2022/07/04 10:17:21;;;;;;;0.10;0.10;;;;;;;22.21;52.84;101691.47;5097474;28;20191;-39
2022/07/04 10:19:47;;;;;;;0.10;0.10;;;;;;;22.21;52.74;101688.69;5101096;28;20063;-40
2022/07/04 10:22:13;;;;;;;0.10;0.10;;;;;;;22.20;52.70;101685.09;5120927;28;20039;-39
2022/07/04 10:24:38;;;;;;;0.10;0.10;;;;;;;22.20;52.79;101682.31;5117325;28;20454;-39
2022/07/04 10:27:04;;;;;;;0.10;0.10;;;;;;;22.20;53.00;101684.25;5118053;28;20043;-41
2022/07/04 10:29:30;;;;;;;0.10;0.10;;;;;;;22.20;52.83;101674.00;5114197;28;20047;-40
2022/07/04 10:31:56;;;;;;;0.10;0.10;;;;;;;22.19;53.03;101675.09;5122192;28;20082;-39
2022/07/04 10:34:22;;;;;;;0.10;0.10;;;;;;;22.20;52.76;101674.00;5117799;28;20470;-39
2022/07/04 10:36:52;;;;;;;0.10;0.10;;;;;;;22.19;52.90;101672.34;5117857;28;20058;-39
2022/07/04 10:39:24;;;;;;;0.10;0.10;;;;;;;22.19;53.01;101666.78;5102238;28;20174;-39
2022/07/04 10:41:58;;;;;;;0.10;0.10;;;;;;;22.19;52.78;101665.94;5119440;28;20050;-39
2022/07/04 10:44:25;;;;;;;0.10;0.10;;;;;;;22.21;53.21;101667.31;5083790;28;20079;-39
2022/07/04 10:46:56;;;;;;;0.17;0.17;;;;;;;22.20;52.78;101662.88;5115255;28;20044;-41
2022/07/04 10:49:25;;;;;;;0.17;0.17;;;;;;;22.21;52.90;101666.50;5095136;28;20066;-41
2022/07/04 10:51:52;;;;;;;;;;;;;;;22.21;52.88;101661.78;5120093;28;20083;-40
2022/07/04 10:54:21;;;;;;;0.20;0.20;;;;;;;22.20;52.97;101653.75;5121350;28;20329;-40
2022/07/04 10:56:57;;;;;;;0.10;0.10;;;;;;;22.19;52.85;101641.81;5105192;28;20094;-40
2022/07/04 10:59:26;;;;;;;0.10;0.10;;;;;;;22.19;52.96;101644.59;5081709;28;20100;-40
2022/07/04 11:05:01;;;;;;;0.10;0.10;;;;;;;22.20;53.19;101642.66;5172361;27;20194;-39
2022/07/04 11:18:14;;;;;;;0.10;0.10;;;;;;;22.19;52.92;101635.41;5166526;27;20120;-40
2022/07/04 11:20:44;;;;;;;0.10;0.10;;;;;;;22.20;52.95;101623.22;5147384;27;20126;-40
2022/07/04 11:23:11;;;;;;;0.10;0.10;;;;;;;22.20;52.96;101629.59;5165909;27;20085;-41
2022/07/04 11:25:39;;;;;;;0.10;0.10;;;;;;;22.19;53.00;101616.00;5165681;27;20067;-40
2022/07/04 11:28:28;;;;;;;0.10;0.10;;;;;;;22.20;52.98;101609.34;5163336;27;20342;-40
2022/07/04 11:31:12;;;;;;;0.10;0.10;;;;;;;22.21;53.00;101617.38;5134777;27;20039;-40
2022/07/04 11:33:39;;;;;;;0.10;0.10;;;;;;;22.21;53.01;101622.09;5146495;27;20138;-41
2022/07/04 11:36:08;;;;;;;0.10;0.10;;;;;;;22.20;52.94;101617.69;5162569;27;20083;-40
2022/07/04 11:38:59;;;;;;;0.10;0.10;;;;;;;22.20;52.83;101614.91;5143916;27;20138;-41
2022/07/04 11:47:05;;;;;;;0.10;0.10;;;;;;;22.21;52.82;101606.28;5112221;27;20051;-41
2022/07/04 11:49:31;;;;;;;0.10;0.10;;;;;;;22.20;52.91;101610.19;5124934;27;20075;-41
2022/07/04 11:51:57;;;;;;;0.10;0.10;;;;;;;22.21;52.96;101602.69;5124457;27;20043;-39
2022/07/04 11:54:22;;;;;;;0.10;0.10;;;;;;;22.19;52.87;101602.97;5145475;27;20082;-41
2022/07/04 11:57:09;;;;;;;0.10;0.10;;;;;;;22.19;53.04;101602.97;5143528;27;20043;-37
2022/07/04 11:59:35;;;;;;;0.10;0.10;;;;;;;22.19;53.17;101602.13;5142853;27;20526;-40
2022/07/04 12:02:16;;;;;;;0.10;0.10;;;;;;;22.20;52.94;101598.25;5143897;27;20043;-39